Time;durP1;ratioP1;P1;durP2;ratioP2;P2;SDS_P1;SDS_P2;PMS_P1;PMS_P2;Temp;Humidity;BMP_temperature;BMP_pressure;BME280_temperature;BME280_humidity;BME280_pressure;Samples;Min_cycle;Max_cycle;Signal;HPM_P1;HPM_P2
2022/09/13 00:00:02;;;;;;;;;;;10.60;99.90;;;;;;5012337;28;19918;-74
2022/09/13 00:02:28;;;;;;;;;;;10.60;99.90;;;;;;5012805;28;19913;-74
2022/09/13 00:04:53;;;;;;;;;;;10.50;99.90;;;;;;5012765;28;19955;-74
2022/09/13 00:07:19;;;;;;;;;;;10.60;99.90;;;;;;5012311;28;19913;-74
2022/09/13 00:09:44;;;;;;;;;;;10.70;99.90;;;;;;5012934;28;19910;-74
2022/09/13 00:12:10;;;;;;;;;;;10.60;99.90;;;;;;5012448;28;20326;-74
2022/09/13 00:14:35;;;;;;;;;;;10.50;99.90;;;;;;5012396;28;19914;-74
2022/09/13 00:17:01;;;;;;;;;;;10.60;99.90;;;;;;4995119;28;19909;-74
2022/09/13 00:19:26;;;;;;;;;;;10.60;99.90;;;;;;4995003;28;19919;-74
2022/09/13 00:21:54;;;;;;;;;;;10.60;99.90;;;;;;4994565;28;20428;-74
2022/09/13 00:24:19;;;;;;;;;;;10.50;99.90;;;;;;5012331;28;19921;-74
2022/09/13 00:26:45;;;;;;;;;;;10.40;99.90;;;;;;5012448;28;19951;-74
2022/09/13 00:29:10;;;;;;;;;;;10.30;99.90;;;;;;5012045;28;19910;-74
2022/09/13 00:31:36;;;;;;;;;;;10.30;99.90;;;;;;5012131;28;19918;-74
2022/09/13 00:34:01;;;;;;;;;;;10.20;99.90;;;;;;4994597;28;19913;-74
2022/09/13 00:36:27;;;;;;;;;;;10.30;99.90;;;;;;5011765;28;19948;-74
2022/09/13 00:38:53;;;;;;;;;;;10.20;99.90;;;;;;5011825;28;19917;-74
2022/09/13 00:41:19;;;;;;;;;;;10.10;99.90;;;;;;5012091;28;20016;-74
2022/09/13 00:43:47;;;;;;;;;;;10.10;99.90;;;;;;5011837;28;19913;-74
2022/09/13 00:46:23;;;;;;;;;;;10.00;99.90;;;;;;5012212;28;20370;-74
2022/09/13 00:48:49;;;;;;;;;;;9.90;99.90;;;;;;5012230;28;19967;-74
2022/09/13 00:51:15;;;;;;;;;;;10.00;99.90;;;;;;5011890;28;20351;-74
2022/09/13 00:53:43;;;;;;;;;;;10.10;99.90;;;;;;5011929;28;19919;-74
2022/09/13 00:56:18;;;;;;;;;;;10.00;99.90;;;;;;5011738;28;19920;-74
2022/09/13 00:58:49;;;;;;;;;;;9.90;99.90;;;;;;5011056;28;20004;-74
2022/09/13 01:01:16;;;;;;;;;;;9.90;99.90;;;;;;5011662;28;19916;-74
2022/09/13 01:03:42;;;;;;;;;;;10.00;99.90;;;;;;5011644;28;19910;-74
2022/09/13 01:06:10;;;;;;;;;;;9.90;99.90;;;;;;5011877;28;19917;-74
2022/09/13 01:08:37;;;;;;;;;;;9.90;99.90;;;;;;5011695;28;20381;-74
2022/09/13 01:11:05;;;;;;;;;;;9.80;99.90;;;;;;5011636;28;20430;-74
2022/09/13 01:13:32;;;;;;;;;;;9.80;99.90;;;;;;5011438;28;19910;-74
2022/09/13 01:15:58;;;;;;;;;;;9.80;99.90;;;;;;5011730;28;19913;-74
2022/09/13 01:18:24;;;;;;;;;;;9.90;99.90;;;;;;5010744;28;19968;-74
2022/09/13 01:20:49;;;;;;;;;;;9.90;99.90;;;;;;4993847;28;19917;-74
2022/09/13 01:23:30;;;;;;;;;;;9.90;99.90;;;;;;5010919;28;20397;-74
2022/09/13 01:26:04;;;;;;;;;;;9.90;99.90;;;;;;5011540;28;20390;-74
2022/09/13 01:29:02;;;;;;;;;;;9.90;99.90;;;;;;5011218;28;19913;-74
2022/09/13 01:31:52;;;;;;;;;;;10.00;99.90;;;;;;4972498;28;20370;-74
2022/09/13 01:34:34;;;;;;;;;;;10.10;99.90;;;;;;5011253;28;20294;-74
2022/09/13 01:37:18;;;;;;;;;;;10.10;99.90;;;;;;5007056;28;19919;-74
2022/09/13 01:39:49;;;;;;;;;;;10.00;99.90;;;;;;5011067;28;19928;-74
2022/09/13 01:42:50;;;;;;;;;;;9.80;99.90;;;;;;5011090;28;19917;-74
2022/09/13 01:45:36;;;;;;;;;;;9.70;99.90;;;;;;4950436;29;19911;-74
2022/09/13 01:48:23;;;;;;;;;;;9.80;99.90;;;;;;5000738;28;20307;-74
2022/09/13 01:51:07;;;;;;;;;;;9.70;99.90;;;;;;5011262;28;19909;-74
2022/09/13 01:53:45;;;;;;;;;;;9.70;99.90;;;;;;5010805;28;19909;-74
2022/09/13 01:56:39;;;;;;;;;;;9.60;99.90;;;;;;5011194;28;20363;-74
2022/09/13 01:59:10;;;;;;;;;;;9.50;99.90;;;;;;4993441;28;19920;-74
2022/09/13 02:01:40;;;;;;;;;;;9.60;99.90;;;;;;4993303;28;19910;-74
2022/09/13 02:04:08;;;;;;;;;;;9.60;99.90;;;;;;5010913;28;19909;-74
2022/09/13 02:06:39;;;;;;;;;;;9.50;99.90;;;;;;5011234;28;19948;-74
2022/09/13 02:09:09;;;;;;;;;;;9.50;99.90;;;;;;5010908;28;20007;-74
2022/09/13 02:11:36;;;;;;;;;;;9.50;99.90;;;;;;5010729;28;19967;-74
2022/09/13 02:14:10;;;;;;;;;;;9.40;99.90;;;;;;5010810;28;19964;-74
2022/09/13 02:16:44;;;;;;;;;;;9.30;99.90;;;;;;5011049;28;19910;-75
2022/09/13 02:19:14;;;;;;;;;;;9.30;99.90;;;;;;5010900;28;19913;-75
2022/09/13 02:21:43;;;;;;;;;;;9.30;99.90;;;;;;5010629;28;20339;-75
2022/09/13 02:24:12;;;;;;;;;;;9.40;99.90;;;;;;5009734;28;19922;-75
2022/09/13 02:26:39;;;;;;;;;;;9.40;99.90;;;;;;5011088;28;19953;-75
2022/09/13 02:29:07;;;;;;;;;;;9.40;99.90;;;;;;5011020;28;19910;-75
2022/09/13 02:31:34;;;;;;;;;;;9.30;99.90;;;;;;5014125;28;19909;-75
2022/09/13 02:34:02;;;;;;;;;;;9.30;99.90;;;;;;5014263;28;19909;-75
2022/09/13 02:36:30;;;;;;;;;;;9.30;99.90;;;;;;5014616;28;19910;-75
2022/09/13 02:38:58;;;;;;;;;;;9.20;99.90;;;;;;4996028;28;19953;-75
2022/09/13 02:41:34;;;;;;;;;;;9.20;99.90;;;;;;5014179;28;19909;-75
2022/09/13 02:44:20;;;;;;;;;;;9.10;99.90;;;;;;5014184;28;19909;-75
2022/09/13 02:46:58;;;;;;;;;;;9.00;99.90;;;;;;5013596;28;19917;-75
2022/09/13 02:49:28;;;;;;;;;;;9.00;99.90;;;;;;5014382;28;19981;-75
2022/09/13 02:51:56;;;;;;;;;;;9.00;99.90;;;;;;5014120;28;19910;-75
2022/09/13 02:54:24;;;;;;;;;;;9.10;99.90;;;;;;5014397;28;19971;-74
2022/09/13 02:56:57;;;;;;;;;;;9.20;99.90;;;;;;5012966;28;19910;-74
2022/09/13 02:59:23;;;;;;;;;;;9.10;99.90;;;;;;5013657;28;19913;-75
2022/09/13 03:02:01;;;;;;;;;;;9.10;99.90;;;;;;5013910;28;19909;-75
2022/09/13 03:04:27;;;;;;;;;;;9.10;99.90;;;;;;4996554;28;19910;-75
2022/09/13 03:06:52;;;;;;;;;;;9.10;99.90;;;;;;4996642;28;20363;-75
2022/09/13 03:09:18;;;;;;;;;;;9.20;99.90;;;;;;5014192;28;19914;-75
2022/09/13 03:11:47;;;;;;;;;;;9.00;99.90;;;;;;5013998;28;19918;-75
2022/09/13 03:14:12;;;;;;;;;;;9.10;99.90;;;;;;5013923;28;19909;-75
2022/09/13 03:16:44;;;;;;;;;;;9.00;99.90;;;;;;5014204;28;19914;-75
2022/09/13 03:19:24;;;;;;;;;;;8.90;99.90;;;;;;5008358;28;19936;-75
2022/09/13 03:22:08;;;;;;;;;;;8.90;99.90;;;;;;5013674;28;19910;-75
2022/09/13 03:24:36;;;;;;;;;;;9.00;99.90;;;;;;5013662;28;19969;-75
2022/09/13 03:27:05;;;;;;;;;;;9.20;99.90;;;;;;5013958;28;20089;-75
2022/09/13 03:29:49;;;;;;;;;;;9.10;99.90;;;;;;4996018;28;19910;-74
2022/09/13 03:32:33;;;;;;;;;;;9.10;99.90;;;;;;5013412;28;19910;-75
2022/09/13 03:34:58;;;;;;;;;;;9.20;99.90;;;;;;4995874;28;19918;-74
2022/09/13 03:37:27;;;;;;;;;;;9.10;99.90;;;;;;5013644;28;19909;-75
2022/09/13 03:40:02;;;;;;;;;;;9.00;99.90;;;;;;5013575;28;19921;-74
2022/09/13 03:42:46;;;;;;;;;;;9.20;99.90;;;;;;4994810;28;19909;-75
2022/09/13 03:45:13;;;;;;;;;;;9.10;99.90;;;;;;5013284;28;19916;-75
2022/09/13 03:47:40;;;;;;;;;;;9.00;99.90;;;;;;5013551;28;19920;-75
2022/09/13 03:50:06;;;;;;;;;;;8.90;99.90;;;;;;5013466;28;20008;-75
2022/09/13 03:52:32;;;;;;;;;;;8.90;99.90;;;;;;5013211;28;20428;-75
2022/09/13 03:54:58;;;;;;;;;;;8.90;99.90;;;;;;5012477;28;19918;-75
2022/09/13 03:57:23;;;;;;;;;;;8.80;99.90;;;;;;5012836;28;20367;-75
2022/09/13 03:59:53;;;;;;;;;;;8.80;99.90;;;;;;5013229;28;19914;-75
2022/09/13 04:02:19;;;;;;;;;;;8.80;99.90;;;;;;5013059;28;19968;-75
2022/09/13 04:04:45;;;;;;;;;;;8.80;99.90;;;;;;4995451;28;19917;-75
2022/09/13 04:07:12;;;;;;;;;;;8.80;99.90;;;;;;5012359;28;19909;-75
2022/09/13 04:09:38;;;;;;;;;;;8.80;99.90;;;;;;5012766;28;20454;-75
2022/09/13 04:12:04;;;;;;;;;;;8.80;99.90;;;;;;5012717;28;19917;-75
2022/09/13 04:14:29;;;;;;;;;;;8.80;99.90;;;;;;5012665;28;20318;-74
2022/09/13 04:16:56;;;;;;;;;;;8.70;99.90;;;;;;5013002;28;20004;-75
2022/09/13 04:19:22;;;;;;;;;;;8.70;99.90;;;;;;5013163;28;19920;-75
2022/09/13 04:21:48;;;;;;;;;;;8.70;99.90;;;;;;5012614;28;19909;-73
2022/09/13 04:24:14;;;;;;;;;;;8.60;99.90;;;;;;5012337;28;20425;-75
2022/09/13 04:26:39;;;;;;;;;;;8.70;99.90;;;;;;4994989;28;19913;-74
2022/09/13 04:29:05;;;;;;;;;;;8.70;99.90;;;;;;5012808;28;20150;-75
2022/09/13 04:31:30;;;;;;;;;;;8.70;99.90;;;;;;5012644;28;19988;-75
2022/09/13 04:33:58;;;;;;;;;;;8.90;99.90;;;;;;5012408;28;20390;-74
2022/09/13 04:36:24;;;;;;;;;;;9.10;99.90;;;;;;5012517;28;19921;-75
2022/09/13 04:38:49;;;;;;;;;;;9.10;99.90;;;;;;5012304;28;19917;-75
2022/09/13 04:41:16;;;;;;;;;;;9.20;99.90;;;;;;4994939;28;19914;-75
2022/09/13 04:43:41;;;;;;;;;;;9.20;99.90;;;;;;5012442;28;20337;-75
2022/09/13 04:46:07;;;;;;;;;;;9.30;99.90;;;;;;5013218;28;19956;-75
2022/09/13 04:48:33;;;;;;;;;;;9.30;99.90;;;;;;4995579;28;20008;-74
2022/09/13 04:51:04;;;;;;;;;;;9.40;99.90;;;;;;5012630;28;20298;-74
2022/09/13 04:53:30;;;;;;;;;;;9.60;99.90;;;;;;5012625;28;19913;-75
2022/09/13 04:55:59;;;;;;;;;;;9.60;99.90;;;;;;5012493;28;20437;-75
2022/09/13 04:58:25;;;;;;;;;;;9.60;99.90;;;;;;5012342;28;19914;-75
2022/09/13 05:00:55;;;;;;;;;;;9.70;99.90;;;;;;5013748;28;19910;-75
2022/09/13 05:03:21;;;;;;;;;;;9.70;99.90;;;;;;5012069;28;20024;-74
2022/09/13 05:05:46;;;;;;;;;;;9.70;99.90;;;;;;5012140;28;20402;-75
2022/09/13 05:08:12;;;;;;;;;;;9.60;99.90;;;;;;5012230;28;20458;-75
2022/09/13 05:10:37;;;;;;;;;;;9.60;99.90;;;;;;5012113;28;20363;-75
2022/09/13 05:13:03;;;;;;;;;;;9.50;99.90;;;;;;5011253;28;19995;-74
2022/09/13 05:15:28;;;;;;;;;;;9.50;99.90;;;;;;5011416;28;19913;-75
2022/09/13 05:17:54;;;;;;;;;;;9.50;99.90;;;;;;4994440;28;19940;-75
2022/09/13 05:20:20;;;;;;;;;;;9.50;99.90;;;;;;5011860;28;19920;-75
2022/09/13 05:22:45;;;;;;;;;;;9.60;99.90;;;;;;4994091;28;19909;-75
2022/09/13 05:25:11;;;;;;;;;;;9.50;99.90;;;;;;5011662;28;19927;-75
2022/09/13 05:27:36;;;;;;;;;;;9.50;99.90;;;;;;5012165;28;19910;-75
2022/09/13 05:30:02;;;;;;;;;;;9.50;99.90;;;;;;5011866;28;20386;-75
2022/09/13 05:32:29;;;;;;;;;;;9.50;99.90;;;;;;5012243;28;20275;-75
2022/09/13 05:34:55;;;;;;;;;;;9.60;99.90;;;;;;4994097;28;19917;-75
2022/09/13 05:37:20;;;;;;;;;;;9.60;99.90;;;;;;5011189;28;19909;-75
2022/09/13 05:39:45;;;;;;;;;;;9.70;99.90;;;;;;5011849;28;19918;-74
2022/09/13 05:42:11;;;;;;;;;;;9.70;99.90;;;;;;5011373;28;19910;-75
2022/09/13 05:44:36;;;;;;;;;;;9.80;99.90;;;;;;4993651;28;19909;-75
2022/09/13 05:47:02;;;;;;;;;;;9.80;99.90;;;;;;5011536;28;19960;-75
2022/09/13 05:49:27;;;;;;;;;;;9.80;99.90;;;;;;5010616;28;19909;-75
2022/09/13 05:51:53;;;;;;;;;;;9.90;99.90;;;;;;5010917;28;19910;-75
2022/09/13 05:54:18;;;;;;;;;;;9.90;99.90;;;;;;5011154;28;20000;-75
2022/09/13 05:56:44;;;;;;;;;;;9.90;99.90;;;;;;5010761;28;19913;-75
2022/09/13 05:59:10;;;;;;;;;;;10.00;99.90;;;;;;5011145;28;19913;-75
2022/09/13 06:01:36;;;;;;;;;;;10.10;99.90;;;;;;5011053;28;19917;-75
2022/09/13 06:04:01;;;;;;;;;;;10.20;99.90;;;;;;5011130;28;19910;-75
2022/09/13 06:06:27;;;;;;;;;;;10.30;99.90;;;;;;5014617;28;19919;-75
2022/09/13 06:08:53;;;;;;;;;;;10.50;99.90;;;;;;5014793;28;20263;-75
2022/09/13 06:11:19;;;;;;;;;;;10.60;99.90;;;;;;5014926;28;19936;-75
2022/09/13 06:13:44;;;;;;;;;;;10.80;99.90;;;;;;5015052;28;20367;-73
2022/09/13 06:16:10;;;;;;;;;;;10.90;99.90;;;;;;4997771;28;19909;-75
2022/09/13 06:18:36;;;;;;;;;;;11.00;99.90;;;;;;5015016;28;19914;-75
2022/09/13 06:21:06;;;;;;;;;;;11.10;99.90;;;;;;4997584;28;20000;-75
2022/09/13 06:23:32;;;;;;;;;;;11.20;99.90;;;;;;5014607;28;19917;-75
2022/09/13 06:26:02;;;;;;;;;;;11.30;99.90;;;;;;5015118;28;19916;-75
2022/09/13 06:28:27;;;;;;;;;;;11.30;99.90;;;;;;5014775;28;19942;-75
2022/09/13 06:30:58;;;;;;;;;;;11.20;99.90;;;;;;5014546;28;19909;-74
2022/09/13 06:33:23;;;;;;;;;;;11.30;99.90;;;;;;5013958;28;19917;-75
2022/09/13 06:35:49;;;;;;;;;;;11.30;99.90;;;;;;5014277;28;19909;-74
2022/09/13 06:38:14;;;;;;;;;;;11.40;99.90;;;;;;5014565;28;20040;-75
2022/09/13 06:40:40;;;;;;;;;;;11.30;99.90;;;;;;5014869;28;20397;-75
2022/09/13 06:43:05;;;;;;;;;;;11.30;99.90;;;;;;5014266;28;19999;-75
2022/09/13 06:45:31;;;;;;;;;;;11.40;99.90;;;;;;5013978;28;19909;-75
2022/09/13 06:47:56;;;;;;;;;;;11.50;99.90;;;;;;5014638;28;20099;-75
2022/09/13 06:50:22;;;;;;;;;;;11.60;99.90;;;;;;5014373;28;19910;-75
2022/09/13 06:52:47;;;;;;;;;;;12.00;99.90;;;;;;5014333;28;20021;-74
2022/09/13 06:55:13;;;;;;;;;;;12.20;99.90;;;;;;5014271;28;19917;-75
2022/09/13 06:57:38;;;;;;;;;;;12.30;99.90;;;;;;5013580;28;19914;-75
2022/09/13 07:00:04;;;;;;;;;;;12.60;99.90;;;;;;5014044;28;20011;-75
2022/09/13 07:02:30;;;;;;;;;;;12.80;99.90;;;;;;5013993;28;20371;-75
2022/09/13 07:04:55;;;;;;;;;;;13.00;99.90;;;;;;5014386;28;19941;-75
2022/09/13 07:07:21;;;;;;;;;;;13.20;99.90;;;;;;4996698;28;19910;-75
2022/09/13 07:09:46;;;;;;;;;;;13.30;99.90;;;;;;4996557;28;20271;-75
2022/09/13 07:12:12;;;;;;;;;;;13.40;99.90;;;;;;5013806;28;19916;-75
2022/09/13 07:14:37;;;;;;;;;;;13.50;99.90;;;;;;5013899;28;19964;-76
2022/09/13 07:17:03;;;;;;;;;;;13.70;99.90;;;;;;5013997;28;19910;-75
2022/09/13 07:19:30;;;;;;;;;;;14.10;99.90;;;;;;5013825;28;20434;-76
2022/09/13 07:21:56;;;;;;;;;;;14.30;99.90;;;;;;5013752;28;20000;-76
2022/09/13 07:24:21;;;;;;;;;;;14.60;99.90;;;;;;5013641;28;19996;-76
2022/09/13 07:26:47;;;;;;;;;;;14.90;99.90;;;;;;4996171;28;19910;-76
2022/09/13 07:29:15;;;;;;;;;;;15.10;99.90;;;;;;5013450;28;19909;-75
2022/09/13 07:31:41;;;;;;;;;;;15.40;99.90;;;;;;5013406;28;19909;-75
2022/09/13 07:34:10;;;;;;;;;;;15.80;99.90;;;;;;5013497;28;19909;-76
2022/09/13 07:36:36;;;;;;;;;;;16.50;99.90;;;;;;5013753;28;19971;-76
2022/09/13 07:39:02;;;;;;;;;;;17.50;99.90;;;;;;4995951;28;19917;-76
2022/09/13 07:41:28;;;;;;;;;;;17.40;99.90;;;;;;5013342;28;19917;-76
2022/09/13 07:43:54;;;;;;;;;;;17.30;99.90;;;;;;5013410;28;19914;-76
2022/09/13 07:46:23;;;;;;;;;;;17.60;99.90;;;;;;5013458;28;20291;-76
2022/09/13 07:48:52;;;;;;;;;;;17.80;99.90;;;;;;5013394;28;19918;-76
2022/09/13 07:51:19;;;;;;;;;;;18.90;99.90;;;;;;5013226;28;19979;-74
2022/09/13 07:53:45;;;;;;;;;;;21.90;99.90;;;;;;5013023;28;19909;-73
2022/09/13 07:56:15;;;;;;;;;;;24.00;99.90;;;;;;4995399;28;19920;-74
2022/09/13 07:58:41;;;;;;;;;;;24.70;97.30;;;;;;5012191;28;19914;-74
2022/09/13 08:01:12;;;;;;;;;;;25.50;95.30;;;;;;5012668;28;19909;-75
2022/09/13 08:03:37;;;;;;;;;;;25.80;92.90;;;;;;5012628;28;19910;-75
2022/09/13 08:06:04;;;;;;;;;;;26.30;91.70;;;;;;5013116;28;19909;-75
2022/09/13 08:08:30;;;;;;;;;;;26.20;89.80;;;;;;5012585;28;19909;-75
2022/09/13 08:10:56;;;;;;;;;;;26.80;89.20;;;;;;5013167;28;19920;-75
2022/09/13 08:13:21;;;;;;;;;;;26.80;87.30;;;;;;5012056;28;19909;-75
2022/09/13 08:15:48;;;;;;;;;;;27.30;85.60;;;;;;5012244;28;19948;-75
2022/09/13 08:18:14;;;;;;;;;;;27.70;83.00;;;;;;5012967;28;20317;-75
2022/09/13 08:20:40;;;;;;;;;;;27.60;83.70;;;;;;4995037;28;19910;-75
2022/09/13 08:23:06;;;;;;;;;;;28.00;80.90;;;;;;5012656;28;19932;-75
2022/09/13 08:25:33;;;;;;;;;;;27.80;78.50;;;;;;5012610;28;19959;-74
2022/09/13 08:28:09;;;;;;;;;;;28.10;80.10;;;;;;5012265;28;20336;-75
2022/09/13 08:30:36;;;;;;;;;;;28.40;77.40;;;;;;4994989;28;20363;-75
2022/09/13 08:33:04;;;;;;;;;;;28.00;78.00;;;;;;5012452;28;19913;-76
2022/09/13 08:35:30;;;;;;;;;;;28.40;76.90;;;;;;5012829;28;19918;-75
2022/09/13 08:37:56;;;;;;;;;;;28.60;76.50;;;;;;5012081;28;19952;-75
2022/09/13 08:40:23;;;;;;;;;;;28.40;75.30;;;;;;5012350;28;19913;-76
2022/09/13 08:42:52;;;;;;;;;;;28.80;75.00;;;;;;5012071;28;19991;-75
2022/09/13 08:45:18;;;;;;;;;;;29.30;74.70;;;;;;5011903;28;19914;-74
2022/09/13 08:47:47;;;;;;;;;;;29.30;72.50;;;;;;5012273;28;20393;-75
2022/09/13 08:50:17;;;;;;;;;;;29.00;72.90;;;;;;5012324;28;19999;-75
2022/09/13 08:52:48;;;;;;;;;;;28.70;73.90;;;;;;5011969;28;19956;-74
2022/09/13 08:55:25;;;;;;;;;;;28.90;73.10;;;;;;5011936;28;20256;-75
2022/09/13 08:58:05;;;;;;;;;;;30.00;72.10;;;;;;5011549;28;19910;-75
2022/09/13 09:00:34;;;;;;;;;;;30.00;71.10;;;;;;5007500;28;19913;-75
2022/09/13 09:03:13;;;;;;;;;;;29.50;71.90;;;;;;5005938;28;19910;-75
2022/09/13 09:05:46;;;;;;;;;;;29.10;68.40;;;;;;5012508;28;20044;-74
2022/09/13 09:08:16;;;;;;;;;;;29.20;70.40;;;;;;5012091;28;19996;-75
2022/09/13 09:10:45;;;;;;;;;;;30.00;67.50;;;;;;5011915;28;19913;-75
2022/09/13 09:13:13;;;;;;;;;;;31.30;62.70;;;;;;5011528;28;19984;-75
2022/09/13 09:15:41;;;;;;;;;;;32.60;62.20;;;;;;5011862;28;19920;-75
2022/09/13 09:18:13;;;;;;;;;;;32.70;51.80;;;;;;5011659;28;20360;-76
2022/09/13 09:20:43;;;;;;;;;;;30.90;60.00;;;;;;5011225;28;20430;-74
2022/09/13 09:23:23;;;;;;;;;;;30.70;57.60;;;;;;5011289;28;20073;-77
2022/09/13 09:25:55;;;;;;;;;;;29.80;59.50;;;;;;5011784;28;20013;-75
2022/09/13 09:28:21;;;;;;;;;;;31.00;62.30;;;;;;5011406;28;19997;-75
2022/09/13 09:31:22;;;;;;;;;;;32.20;56.90;;;;;;5009162;28;20240;-75
2022/09/13 09:33:48;;;;;;;;;;;33.20;56.70;;;;;;4950724;29;19911;-75
2022/09/13 09:36:32;;;;;;;;;;;33.40;53.10;;;;;;4994578;28;20359;-76
2022/09/13 09:38:57;;;;;;;;;;;32.90;52.20;;;;;;5004399;28;19917;-76
2022/09/13 09:41:31;;;;;;;;;;;33.10;52.40;;;;;;5010820;28;19979;-76
2022/09/13 09:44:03;;;;;;;;;;;32.10;52.90;;;;;;5011195;28;20302;-76
2022/09/13 09:46:31;;;;;;;;;;;33.00;54.80;;;;;;5011678;28;20321;-75
2022/09/13 09:49:03;;;;;;;;;;;32.20;55.80;;;;;;5011545;28;19910;-75
2022/09/13 09:51:30;;;;;;;;;;;31.50;51.90;;;;;;5011226;28;19913;-75
2022/09/13 09:54:00;;;;;;;;;;;31.10;59.40;;;;;;5011152;28;19910;-75
2022/09/13 09:56:30;;;;;;;;;;;30.80;59.30;;;;;;5011667;28;19916;-75
2022/09/13 09:58:55;;;;;;;;;;;29.50;57.10;;;;;;5010343;28;19920;-75
2022/09/13 10:01:25;;;;;;;;;;;29.90;58.90;;;;;;5010311;28;20290;-75
2022/09/13 10:03:52;;;;;;;;;;;29.20;56.00;;;;;;5010984;28;19917;-75
2022/09/13 10:06:19;;;;;;;;;;;31.40;58.00;;;;;;5011218;28;20367;-75
2022/09/13 10:08:54;;;;;;;;;;;32.40;50.00;;;;;;5011219;28;19953;-75
2022/09/13 10:11:21;;;;;;;;;;;31.40;54.10;;;;;;5011083;28;19924;-75
2022/09/13 10:13:57;;;;;;;;;;;30.90;51.40;;;;;;5010908;28;19917;-75
2022/09/13 10:16:29;;;;;;;;;;;30.30;55.00;;;;;;4993175;28;20347;-75
2022/09/13 10:19:15;;;;;;;;;;;29.90;53.20;;;;;;5010980;28;20262;-75
2022/09/13 10:21:40;;;;;;;;;;;28.90;59.80;;;;;;5000265;28;19910;-74
2022/09/13 10:24:16;;;;;;;;;;;29.40;55.30;;;;;;5010770;28;20400;-75
2022/09/13 10:26:41;;;;;;;;;;;30.40;51.00;;;;;;4993428;28;19916;-74
2022/09/13 10:29:13;;;;;;;;;;;30.90;49.10;;;;;;5010523;28;19910;-75
2022/09/13 10:31:41;;;;;;;;;;;32.00;52.60;;;;;;5010711;28;19913;-76
2022/09/13 10:34:19;;;;;;;;;;;34.10;49.40;;;;;;5010796;28;19957;-76
2022/09/13 10:36:57;;;;;;;;;;;34.60;45.00;;;;;;5010965;28;19913;-76
2022/09/13 10:39:23;;;;;;;;;;;35.60;44.90;;;;;;5010778;28;19967;-76
2022/09/13 10:41:51;;;;;;;;;;;35.80;42.70;;;;;;5010530;28;19913;-76
2022/09/13 10:44:31;;;;;;;;;;;36.10;45.60;;;;;;5010621;28;19955;-76
2022/09/13 10:46:58;;;;;;;;;;;36.10;42.80;;;;;;5004600;28;19909;-77
2022/09/13 10:49:36;;;;;;;;;;;36.30;42.90;;;;;;5004519;28;19914;-76
2022/09/13 10:52:21;;;;;;;;;;;36.10;40.60;;;;;;5008091;28;20433;-76
2022/09/13 10:54:46;;;;;;;;;;;35.50;42.20;;;;;;5014220;28;20263;-76
2022/09/13 10:57:29;;;;;;;;;;;32.40;45.70;;;;;;4996668;28;19941;-73
2022/09/13 10:59:55;;;;;;;;;;;32.30;47.80;;;;;;5013842;28;19913;-74
2022/09/13 11:02:40;;;;;;;;;;;32.20;51.60;;;;;;5014039;28;20355;-74
2022/09/13 11:05:06;;;;;;;;;;;33.10;47.10;;;;;;4995716;28;20314;-74
2022/09/13 11:08:06;;;;;;;;;;;33.00;49.40;;;;;;5014172;28;19913;-72
2022/09/13 11:10:35;;;;;;;;;;;33.50;45.10;;;;;;4953340;28;19931;-74
2022/09/13 11:13:19;;;;;;;;;;;33.40;46.70;;;;;;4998722;28;19940;-74
2022/09/13 11:15:45;;;;;;;;;;;33.10;42.40;;;;;;5014016;28;19910;-74
2022/09/13 11:18:16;;;;;;;;;;;31.70;48.40;;;;;;4996308;28;19909;-73
2022/09/13 11:21:01;;;;;;;;;;;31.80;47.70;;;;;;5013837;28;19986;-74
2022/09/13 11:23:30;;;;;;;;;;;30.70;46.70;;;;;;5013347;28;19909;-75
2022/09/13 11:25:58;;;;;;;;;;;30.40;50.90;;;;;;5013686;28;20000;-75
2022/09/13 11:28:43;;;;;;;;;;;29.90;48.00;;;;;;5013588;28;19909;-76
2022/09/13 11:31:09;;;;;;;;;;;29.20;50.00;;;;;;5013382;28;20369;-75
2022/09/13 11:33:34;;;;;;;;;;;29.40;52.30;;;;;;5013287;28;19910;-75
2022/09/13 11:36:00;;;;;;;;;;;29.90;49.60;;;;;;5013636;28;19909;-74
2022/09/13 11:38:28;;;;;;;;;;;30.70;51.10;;;;;;5013548;28;19916;-75
2022/09/13 11:41:12;;;;;;;;;;;31.10;49.80;;;;;;4995779;28;19909;-75
2022/09/13 11:43:44;;;;;;;;;;;33.30;46.80;;;;;;5013219;28;20003;-75
2022/09/13 11:46:18;;;;;;;;;;;34.60;46.70;;;;;;5013341;28;20397;-75
2022/09/13 11:48:55;;;;;;;;;;;33.70;45.80;;;;;;5013527;28;19914;-76
2022/09/13 11:51:35;;;;;;;;;;;32.50;45.80;;;;;;5013210;28;20382;-75
2022/09/13 11:54:01;;;;;;;;;;;32.00;50.00;;;;;;5013015;28;20359;-76
2022/09/13 11:56:33;;;;;;;;;;;30.80;49.10;;;;;;5013139;28;20035;-74
2022/09/13 11:59:10;;;;;;;;;;;29.30;50.60;;;;;;5012359;28;20001;-74
2022/09/13 12:01:43;;;;;;;;;;;27.90;52.00;;;;;;5009437;28;19960;-75
2022/09/13 12:04:12;;;;;;;;;;;28.70;56.40;;;;;;5012064;28;19913;-75
2022/09/13 12:06:43;;;;;;;;;;;29.10;60.00;;;;;;5013061;28;19944;-75
2022/09/13 12:09:18;;;;;;;;;;;28.60;51.80;;;;;;5011990;28;20000;-75
2022/09/13 12:11:47;;;;;;;;;;;28.80;53.80;;;;;;5012595;28;19914;-75
2022/09/13 12:14:15;;;;;;;;;;;27.90;53.90;;;;;;5011977;28;19913;-75
2022/09/13 12:16:56;;;;;;;;;;;27.80;51.20;;;;;;5012407;28;19910;-75
2022/09/13 12:19:24;;;;;;;;;;;27.90;53.40;;;;;;5012642;28;20381;-75
2022/09/13 12:21:51;;;;;;;;;;;27.40;53.10;;;;;;5012468;28;19933;-75
2022/09/13 12:24:43;;;;;;;;;;;27.10;54.80;;;;;;4994666;28;19945;-74
2022/09/13 12:27:20;;;;;;;;;;;26.90;55.00;;;;;;5009625;28;20235;-75
2022/09/13 12:29:49;;;;;;;;;;;27.50;56.80;;;;;;5012673;28;19910;-75
2022/09/13 12:32:16;;;;;;;;;;;27.70;56.60;;;;;;5012330;28;19921;-75
2022/09/13 12:35:00;;;;;;;;;;;27.80;52.50;;;;;;5011645;28;20311;-75
2022/09/13 12:37:40;;;;;;;;;;;27.90;55.20;;;;;;5006049;28;20287;-75
2022/09/13 12:40:17;;;;;;;;;;;27.90;55.60;;;;;;4994786;28;19913;-75
2022/09/13 12:42:42;;;;;;;;;;;27.70;53.40;;;;;;5012130;28;19921;-75
2022/09/13 12:45:23;;;;;;;;;;;27.50;58.30;;;;;;5011796;28;19909;-75
2022/09/13 12:48:14;;;;;;;;;;;27.40;53.60;;;;;;5012195;28;19917;-75
2022/09/13 12:50:44;;;;;;;;;;;27.40;55.10;;;;;;4984145;28;19909;-75
2022/09/13 12:53:09;;;;;;;;;;;27.10;55.00;;;;;;5011606;28;20433;-75
2022/09/13 12:55:41;;;;;;;;;;;27.50;53.50;;;;;;4994499;28;19913;-75
2022/09/13 12:58:25;;;;;;;;;;;27.50;56.40;;;;;;5011571;28;20004;-75
2022/09/13 13:00:56;;;;;;;;;;;27.20;55.30;;;;;;5011700;28;19984;-75
2022/09/13 13:03:25;;;;;;;;;;;27.20;55.80;;;;;;5011451;28;20261;-75
2022/09/13 13:05:53;;;;;;;;;;;27.10;57.40;;;;;;5012025;28;19910;-75
2022/09/13 13:08:19;;;;;;;;;;;27.00;58.40;;;;;;5011908;28;20269;-75
2022/09/13 13:10:58;;;;;;;;;;;27.10;55.00;;;;;;4994250;28;19910;-74
2022/09/13 13:13:31;;;;;;;;;;;27.20;53.40;;;;;;5011376;28;19909;-75
2022/09/13 13:15:58;;;;;;;;;;;27.10;54.10;;;;;;5011822;28;19997;-74
2022/09/13 13:18:39;;;;;;;;;;;27.00;54.20;;;;;;5005519;28;20251;-75
2022/09/13 13:21:20;;;;;;;;;;;26.90;52.80;;;;;;5011660;28;20173;-75
2022/09/13 13:23:45;;;;;;;;;;;26.80;53.10;;;;;;5011537;28;19924;-75
2022/09/13 13:26:12;;;;;;;;;;;26.90;58.00;;;;;;5012043;28;19909;-75
2022/09/13 13:28:46;;;;;;;;;;;26.90;55.00;;;;;;5014643;28;20275;-75
2022/09/13 13:31:28;;;;;;;;;;;27.10;60.90;;;;;;5011305;28;19909;-75
2022/09/13 13:34:22;;;;;;;;;;;27.00;54.50;;;;;;5011208;28;20004;-75
2022/09/13 13:36:51;;;;;;;;;;;27.20;56.10;;;;;;5011206;28;20334;-74
2022/09/13 13:39:23;;;;;;;;;;;27.10;61.00;;;;;;5011408;28;19917;-75
2022/09/13 13:41:58;;;;;;;;;;;27.30;61.00;;;;;;5010620;28;19917;-75
2022/09/13 13:44:23;;;;;;;;;;;27.30;61.10;;;;;;5011105;28;19960;-75
2022/09/13 13:46:50;;;;;;;;;;;26.90;58.60;;;;;;5011427;28;19913;-75
2022/09/13 13:49:31;;;;;;;;;;;26.70;61.20;;;;;;5011267;28;19944;-74
2022/09/13 13:52:05;;;;;;;;;;;26.70;57.80;;;;;;5011491;28;19909;-75
2022/09/13 13:54:49;;;;;;;;;;;26.70;52.80;;;;;;5011096;28;20345;-75
2022/09/13 13:57:30;;;;;;;;;;;27.00;56.00;;;;;;5010760;28;19909;-75
2022/09/13 14:00:03;;;;;;;;;;;27.10;60.20;;;;;;5011108;28;20085;-76
2022/09/13 14:02:48;;;;;;;;;;;27.50;53.90;;;;;;5011108;28;19910;-75
2022/09/13 14:05:17;;;;;;;;;;;27.40;54.20;;;;;;4974338;28;19917;-75
2022/09/13 14:08:05;;;;;;;;;;;27.10;56.80;;;;;;5011182;28;20279;-75
2022/09/13 14:10:44;;;;;;;;;;;26.80;50.90;;;;;;4976791;28;19910;-75
2022/09/13 14:13:42;;;;;;;;;;;26.60;54.00;;;;;;5010739;28;19918;-75
2022/09/13 14:16:25;;;;;;;;;;;26.60;53.70;;;;;;4972184;28;19949;-75
2022/09/13 14:19:09;;;;;;;;;;;26.70;52.20;;;;;;5010969;28;19953;-75
2022/09/13 14:21:35;;;;;;;;;;;26.60;54.10;;;;;;5010741;28;20426;-75
2022/09/13 14:24:07;;;;;;;;;;;26.60;52.50;;;;;;5010810;28;19948;-75
2022/09/13 14:26:32;;;;;;;;;;;26.60;54.30;;;;;;5012738;28;19916;-74
2022/09/13 14:28:58;;;;;;;;;;;26.80;51.20;;;;;;5014971;28;19913;-75
2022/09/13 14:31:23;;;;;;;;;;;27.00;52.50;;;;;;5013745;28;20375;-75
2022/09/13 14:33:49;;;;;;;;;;;26.90;50.60;;;;;;5014343;28;20008;-75
2022/09/13 14:36:20;;;;;;;;;;;26.80;51.10;;;;;;5014638;28;19914;-74
2022/09/13 14:38:50;;;;;;;;;;;27.50;51.10;;;;;;5013976;28;19909;-76